EGPM/SCS METAR and TAF weather

Enter ICAO airport designator
Station Type Date Time Source
EGPM METAR 2019/12/13 22:20 UTC NOAA

EGPM 132220Z AUTO 12026KT 9999 BKN011/// OVC022/// 07/05 Q0970 RERA


Station Type Date Time Source
EGPM Decoded METAR 2019/12/13 22:20 UTC NOAA

Scatsa / Shetland Island, United Kingdom (EGPM) 60-26N 001-18W
Dec 13, 2019 - 05:20 PM EST / 2019.12.13 2220 UTC
Wind: from the ESE (120 degrees) at 30 MPH (26 KT):0
Visibility: greater than 7 mile(s):0
Sky conditions: overcast
Temperature: 44 F (7 C)
Dew Point: 41 F (5 C)
Relative Humidity: 87%
Pressure (altimeter): 28.64 in. Hg (0970 hPa)
ob: EGPM 132220Z AUTO 12026KT 9999 BKN011/// OVC022/// 07/05 Q0970 RERA
cycle: 22

Station Type Date Time Source
EGPM TAF 2013/04/29 03:39 UTC NOAA

TAF TAF EGPM 290337Z 2903/2915 22005KT 9999 SCT030 PROB30
TEMPO 2903/2906 7000 SHRAGS
BECMG 2906/2909 32015KT PROB40
TEMPO 2906/2915 6000 SHRA SHGS BKN012CB

Example: see airport list